Time;durP1;ratioP1;P1;durP2;ratioP2;P2;SDS_P1;SDS_P2;PMS_P1;PMS_P2;Temp;Humidity;BMP_temperature;BMP_pressure;BME280_temperature;BME280_humidity;BME280_pressure;Samples;Min_cycle;Max_cycle;Signal;HPM_P1;HPM_P2
2023/06/21 00:02:08;;;;;;;7.65;7.45;;;20.40;99.90;;;;;;5059583;28;20241;-80
2023/06/21 00:04:37;;;;;;;8.13;7.93;;;20.40;99.90;;;;;;5060722;28;20318;-80
2023/06/21 00:07:07;;;;;;;7.70;7.50;;;20.30;99.90;;;;;;5063456;28;20238;-80
2023/06/21 00:09:39;;;;;;;8.02;7.82;;;20.30;99.90;;;;;;5063587;28;20223;-80
2023/06/21 00:12:08;;;;;;;7.90;7.70;;;20.30;99.90;;;;;;5062924;28;20239;-80
2023/06/21 00:14:35;;;;;;;7.65;7.45;;;20.30;99.90;;;;;;5063841;28;20234;-80
2023/06/21 00:17:03;;;;;;;7.28;7.07;;;20.40;99.90;;;;;;5063233;28;20230;-80
2023/06/21 00:19:32;;;;;;;7.90;7.70;;;20.40;99.90;;;;;;5063274;28;20279;-80
2023/06/21 00:22:00;;;;;;;7.80;7.60;;;20.50;99.90;;;;;;5063980;28;20250;-80
2023/06/21 00:24:27;;;;;;;7.60;7.40;;;20.50;99.90;;;;;;5065519;28;20325;-80
2023/06/21 00:26:58;;;;;;;7.60;7.40;;;20.50;99.90;;;;;;5064682;28;20234;-80
2023/06/21 00:29:26;;;;;;;7.70;7.50;;;20.50;99.90;;;;;;5063891;28;20235;-80
2023/06/21 00:31:54;;;;;;;7.60;7.40;;;20.50;99.90;;;;;;5063054;28;20266;-80
2023/06/21 00:34:24;;;;;;;7.78;7.57;;;20.50;99.90;;;;;;5063037;28;20238;-80
2023/06/21 00:36:52;;;;;;;7.90;7.70;;;20.50;99.90;;;;;;5062557;28;20238;-80
2023/06/21 00:39:25;;;;;;;7.80;7.60;;;20.60;99.90;;;;;;5062091;28;20219;-81
2023/06/21 00:41:52;;;;;;;7.70;7.50;;;20.60;99.90;;;;;;5062469;28;20250;-80
2023/06/21 00:44:22;;;;;;;7.97;7.78;;;20.60;99.90;;;;;;5062432;28;20288;-80
2023/06/21 00:46:52;;;;;;;7.80;7.60;;;20.60;99.90;;;;;;5062071;28;20227;-81
2023/06/21 00:49:20;;;;;;;8.10;7.90;;;20.70;99.90;;;;;;5063215;28;20237;-80
2023/06/21 00:51:49;;;;;;;8.30;8.10;;;20.70;99.90;;;;;;5062407;28;20238;-80
2023/06/21 00:54:20;;;;;;;8.60;8.30;;;20.70;99.90;;;;;;5078338;28;20296;-80
2023/06/21 00:56:48;;;;;;;8.10;7.90;;;20.70;99.90;;;;;;5062866;28;20280;-80
2023/06/21 00:59:19;;;;;;;7.75;7.55;;;20.70;99.90;;;;;;5062133;28;20261;-80
2023/06/21 01:01:55;;;;;;;7.85;7.65;;;20.70;99.90;;;;;;5062314;28;20238;-79
2023/06/21 01:04:27;;;;;;;7.78;7.57;;;20.70;99.90;;;;;;5062167;28;20238;-80
2023/06/21 01:07:04;;;;;;;7.20;7.00;;;20.70;99.90;;;;;;5061955;28;20235;-80
2023/06/21 01:09:59;;;;;;;7.53;7.32;;;20.70;99.90;;;;;;5061633;28;20277;-80
2023/06/21 01:12:40;;;;;;;7.85;7.65;;;20.60;99.90;;;;;;5061986;28;20289;-80
2023/06/21 01:15:17;;;;;;;7.95;7.75;;;20.60;99.90;;;;;;5061416;28;20228;-80
2023/06/21 01:17:54;;;;;;;7.50;7.30;;;20.50;99.90;;;;;;5062055;28;20285;-80
2023/06/21 01:20:30;;;;;;;7.70;7.50;;;20.50;99.90;;;;;;5061397;28;20330;-80
2023/06/21 01:23:38;;;;;;;7.72;7.53;;;20.40;99.90;;;;;;5060824;28;20266;-80
2023/06/21 01:26:22;;;;;;;7.50;7.30;;;20.30;99.90;;;;;;5062708;28;20238;-80
2023/06/21 01:29:32;;;;;;;7.50;7.30;;;20.30;99.90;;;;;;5062263;28;20234;-80
2023/06/21 01:32:02;;;;;;;7.50;7.30;;;20.30;99.90;;;;;;5051486;28;20282;-78
2023/06/21 01:34:31;;;;;;;7.38;7.18;;;20.30;99.90;;;;;;5081293;28;20233;-77
2023/06/21 01:36:59;;;;;;;7.10;6.90;;;20.20;99.90;;;;;;5081484;28;20207;-77
2023/06/21 01:39:28;;;;;;;7.35;7.15;;;20.10;99.90;;;;;;5069071;28;21092;-80
2023/06/21 01:41:59;;;;;;;6.93;6.72;;;20.10;99.90;;;;;;5060526;28;20230;-80
2023/06/21 01:44:29;;;;;;;7.15;6.95;;;20.00;99.90;;;;;;5060302;28;20231;-80
2023/06/21 01:46:58;;;;;;;7.10;6.90;;;20.00;99.90;;;;;;5060158;28;20257;-80
2023/06/21 01:49:27;;;;;;;7.20;7.00;;;20.00;99.90;;;;;;5061186;28;20234;-87
2023/06/21 01:51:56;;;;;;;7.20;7.00;;;20.00;99.90;;;;;;5061258;28;20296;-87
2023/06/21 01:54:25;;;;;;;7.18;6.97;;;20.10;99.90;;;;;;5061606;28;20226;-86
2023/06/21 01:57:03;;;;;;;7.35;7.15;;;20.10;99.90;;;;;;5069613;28;20235;-86
2023/06/21 01:59:43;;;;;;;7.30;7.10;;;20.10;99.90;;;;;;5062644;28;20274;-87
2023/06/21 02:02:12;;;;;;;7.40;7.20;;;20.10;99.90;;;;;;5061461;28;20226;-87
2023/06/21 02:04:40;;;;;;;7.40;7.20;;;20.10;99.90;;;;;;5061441;28;20242;-87
2023/06/21 02:07:14;;;;;;;7.55;7.35;;;20.10;99.90;;;;;;5061206;28;20266;-87
2023/06/21 02:09:47;;;;;;;7.40;7.20;;;20.10;99.90;;;;;;5061338;28;20235;-87
2023/06/21 02:12:16;;;;;;;7.20;7.00;;;20.10;99.90;;;;;;5060591;28;20227;-86
2023/06/21 02:14:57;;;;;;;7.10;6.90;;;20.10;99.90;;;;;;5061089;28;20295;-87
2023/06/21 02:17:28;;;;;;;7.40;7.20;;;20.20;99.90;;;;;;5047735;28;20273;-87
2023/06/21 02:19:56;;;;;;;7.20;7.00;;;20.20;99.90;;;;;;5057601;28;20215;-87
2023/06/21 02:22:25;;;;;;;7.40;7.20;;;20.20;99.90;;;;;;5082992;28;20219;-87
2023/06/21 02:24:54;;;;;;;7.57;7.38;;;20.20;99.90;;;;;;5080264;28;20214;-88
2023/06/21 02:27:23;;;;;;;7.50;7.30;;;20.20;99.90;;;;;;5069207;28;20245;-87
2023/06/21 02:32:39;;;;;;;7.30;7.10;;;20.10;99.90;;;;;;5060527;28;20227;-87
2023/06/21 02:35:10;;;;;;;7.40;7.20;;;20.10;99.90;;;;;;5060826;28;20329;-87
2023/06/21 02:37:40;;;;;;;7.28;7.07;;;20.10;99.90;;;;;;5060837;28;20265;-87
2023/06/21 02:40:17;;;;;;;7.20;7.00;;;20.10;99.90;;;;;;5060934;28;20284;-87
2023/06/21 02:42:46;;;;;;;7.22;7.03;;;20.00;99.90;;;;;;5060869;28;20219;-87
2023/06/21 02:48:04;;;;;;;7.60;7.40;;;20.00;99.90;;;;;;5060237;28;20227;-87
2023/06/21 02:50:32;;;;;;;7.50;7.30;;;20.00;99.90;;;;;;5060540;28;20266;-87
2023/06/21 02:53:02;;;;;;;7.70;7.50;;;20.00;99.90;;;;;;5059825;28;20708;-87
2023/06/21 02:55:31;;;;;;;7.68;7.47;;;20.00;99.90;;;;;;5060108;28;20369;-87
2023/06/21 02:58:00;;;;;;;7.70;7.50;;;20.00;99.90;;;;;;5060348;28;20238;-87
2023/06/21 03:03:17;;;;;;;7.90;7.70;;;20.00;99.90;;;;;;5060226;28;20255;-87
2023/06/21 03:05:46;;;;;;;7.97;7.78;;;20.00;99.90;;;;;;5064537;28;20241;-86
2023/06/21 03:08:16;;;;;;;8.00;7.80;;;19.90;99.90;;;;;;5065311;28;20250;-86
2023/06/21 03:10:45;;;;;;;7.90;7.70;;;19.90;99.90;;;;;;5064378;28;20238;-87
2023/06/21 03:13:15;;;;;;;7.70;7.50;;;19.90;99.90;;;;;;5063042;28;20226;-87
2023/06/21 03:15:53;;;;;;;7.82;7.63;;;19.90;99.90;;;;;;5065357;28;20253;-87
2023/06/21 03:18:23;;;;;;;7.88;7.68;;;19.90;99.90;;;;;;5065266;28;20234;-87
2023/06/21 03:20:52;;;;;;;8.07;7.88;;;19.80;99.90;;;;;;5060875;28;20258;-87
2023/06/21 03:23:22;;;;;;;7.80;7.60;;;19.80;99.90;;;;;;5059954;28;20773;-87
2023/06/21 03:25:51;;;;;;;7.75;7.55;;;19.80;99.90;;;;;;5060379;28;20234;-87
2023/06/21 03:28:20;;;;;;;7.70;7.50;;;19.80;99.90;;;;;;5060201;28;20287;-86
2023/06/21 03:30:58;;;;;;;7.72;7.53;;;19.80;99.90;;;;;;5060189;28;20234;-86
2023/06/21 03:33:28;;;;;;;8.00;7.80;;;19.80;99.90;;;;;;5059670;28;20254;-87
2023/06/21 03:35:57;;;;;;;8.00;7.80;;;19.70;99.90;;;;;;5059925;28;20257;-87
2023/06/21 03:38:27;;;;;;;7.80;7.60;;;19.70;99.90;;;;;;5061440;28;20235;-87
2023/06/21 03:40:56;;;;;;;8.00;7.80;;;19.70;99.90;;;;;;5064023;28;20219;-87
2023/06/21 03:43:28;;;;;;;7.80;7.60;;;19.70;99.90;;;;;;5072960;28;20239;-87
2023/06/21 03:46:00;;;;;;;7.80;7.60;;;19.70;99.90;;;;;;5080261;28;20206;-85
2023/06/21 03:48:34;;;;;;;7.95;7.75;;;19.70;99.90;;;;;;5080597;28;20249;-86
2023/06/21 03:51:03;;;;;;;8.05;7.85;;;19.60;99.90;;;;;;5066100;28;20265;-85
2023/06/21 03:53:33;;;;;;;8.00;7.80;;;19.60;99.90;;;;;;5063979;28;20262;-85
2023/06/21 03:56:04;;;;;;;8.00;7.80;;;19.60;99.90;;;;;;5064076;28;20226;-86
2023/06/21 03:58:31;;;;;;;7.85;7.65;;;19.60;99.90;;;;;;5064345;28;20302;-85
2023/06/21 04:03:48;;;;;;;7.30;7.10;;;19.50;99.90;;;;;;5063708;28;20286;-86
2023/06/21 04:06:17;;;;;;;7.60;7.40;;;19.60;99.90;;;;;;5069114;28;20224;-87
2023/06/21 04:08:47;;;;;;;7.60;7.40;;;19.60;99.90;;;;;;5066979;28;20300;-85
2023/06/21 04:11:17;;;;;;;7.80;7.60;;;19.60;99.90;;;;;;5063505;28;20309;-86
2023/06/21 04:13:46;;;;;;;7.10;6.90;;;19.60;99.90;;;;;;5063487;28;20214;-85
2023/06/21 04:16:38;;;;;;;7.63;7.43;;;19.60;99.90;;;;;;5064159;28;20233;-87
2023/06/21 04:19:05;;;;;;;7.50;7.30;;;19.70;99.90;;;;;;5063266;28;20234;-86
2023/06/21 04:21:42;;;;;;;7.40;7.20;;;19.80;99.90;;;;;;5062758;28;20238;-86
2023/06/21 04:24:11;;;;;;;7.72;7.53;;;19.80;99.90;;;;;;5063472;28;20235;-86
2023/06/21 04:26:41;;;;;;;7.80;7.60;;;19.90;99.90;;;;;;5063063;28;20334;-86
2023/06/21 04:29:10;;;;;;;7.70;7.50;;;19.90;99.90;;;;;;5063439;28;20246;-86
2023/06/21 04:32:18;;;;;;;7.70;7.50;;;19.90;99.90;;;;;;5063281;28;20237;-87
2023/06/21 04:34:48;;;;;;;8.00;7.80;;;20.00;99.90;;;;;;5068452;28;20242;-84
2023/06/21 04:37:16;;;;;;;7.70;7.50;;;20.00;99.90;;;;;;5068325;28;20315;-84
2023/06/21 04:39:44;;;;;;;7.70;7.50;;;20.00;99.90;;;;;;5068799;28;20234;-84
2023/06/21 04:42:12;;;;;;;7.57;7.38;;;20.10;99.90;;;;;;5067336;28;20238;-83
2023/06/21 04:44:42;;;;;;;7.57;7.38;;;20.10;99.90;;;;;;5066939;28;20215;-84
2023/06/21 04:47:16;;;;;;;7.60;7.40;;;20.10;99.90;;;;;;5067289;28;20337;-83
2023/06/21 04:49:53;;;;;;;7.70;7.50;;;20.10;99.90;;;;;;5066011;28;20230;-84
2023/06/21 04:52:20;;;;;;;7.70;7.50;;;20.20;99.90;;;;;;5065862;28;20239;-82
2023/06/21 04:54:49;;;;;;;7.50;7.30;;;20.20;99.90;;;;;;5072924;28;20245;-83
2023/06/21 04:57:18;;;;;;;7.90;7.70;;;20.20;99.90;;;;;;5073097;28;20234;-83
2023/06/21 04:59:48;;;;;;;7.40;7.20;;;20.20;99.90;;;;;;5071034;28;20227;-83
2023/06/21 05:02:27;;;;;;;7.20;7.00;;;20.30;99.90;;;;;;5069396;28;20227;-83
2023/06/21 05:04:56;;;;;;;7.50;7.30;;;20.40;99.90;;;;;;5067505;28;20226;-83
2023/06/21 05:07:26;;;;;;;7.00;6.80;;;20.40;99.90;;;;;;5067567;28;20273;-83
2023/06/21 05:09:54;;;;;;;7.32;7.13;;;20.60;99.90;;;;;;5066857;28;20273;-83
2023/06/21 05:12:23;;;;;;;7.90;7.70;;;20.60;99.90;;;;;;5075237;28;20242;-82
2023/06/21 05:14:53;;;;;;;8.10;7.90;;;20.70;99.90;;;;;;5081584;28;20226;-83
2023/06/21 05:17:34;;;;;;;8.27;8.07;;;20.80;99.90;;;;;;5062549;28;20207;-83
2023/06/21 05:20:02;;;;;;;8.32;8.13;;;20.80;99.90;;;;;;5062202;28;20251;-83
2023/06/21 05:22:30;;;;;;;8.20;8.00;;;20.90;99.90;;;;;;5092657;22;20238;-76
2023/06/21 05:24:58;;;;;;;7.97;7.78;;;21.00;99.90;;;;;;5092974;28;20287;-76
2023/06/21 05:27:25;;;;;;;8.27;8.07;;;21.10;99.90;;;;;;5092678;28;20244;-77
2023/06/21 05:29:52;;;;;;;8.00;7.80;;;21.20;99.90;;;;;;5093359;28;20261;-77
2023/06/21 05:32:21;;;;;;;7.78;7.57;;;21.30;99.90;;;;;;5092129;28;20234;-77
2023/06/21 05:34:49;;;;;;;8.00;7.80;;;21.30;99.90;;;;;;5077552;28;20230;-76
2023/06/21 05:37:17;;;;;;;7.70;7.50;;;21.40;99.90;;;;;;5077739;28;20249;-76
2023/06/21 05:39:45;;;;;;;7.70;7.50;;;21.40;99.90;;;;;;5077575;28;20280;-77
2023/06/21 05:42:13;;;;;;;7.70;7.50;;;21.30;99.90;;;;;;5070594;28;20230;-77
2023/06/21 05:44:41;;;;;;;7.70;7.50;;;21.40;99.90;;;;;;5068160;28;20289;-77
2023/06/21 05:47:09;;;;;;;7.65;7.45;;;21.30;99.90;;;;;;5076931;28;20261;-77
2023/06/21 05:49:37;;;;;;;7.60;7.40;;;21.30;99.90;;;;;;5077168;28;20232;-77
2023/06/21 05:52:05;;;;;;;7.60;7.40;;;21.20;99.90;;;;;;5076428;28;20248;-76
2023/06/21 05:54:33;;;;;;;7.75;7.55;;;21.20;99.90;;;;;;5077040;28;20286;-76
2023/06/21 05:57:01;;;;;;;7.60;7.40;;;21.20;99.90;;;;;;5077095;28;20292;-76
2023/06/21 05:59:28;;;;;;;7.80;7.60;;;21.20;99.90;;;;;;5076997;28;20264;-76
2023/06/21 06:01:56;;;;;;;7.60;7.40;;;21.10;99.90;;;;;;5075634;28;20226;-76
2023/06/21 06:04:23;;;;;;;7.88;7.68;;;21.20;99.90;;;;;;5076828;28;20309;-76
2023/06/21 06:06:53;;;;;;;7.80;7.60;;;21.30;99.90;;;;;;5068790;28;20714;-77
2023/06/21 06:09:21;;;;;;;7.70;7.50;;;21.30;99.90;;;;;;5058794;28;20294;-77
2023/06/21 06:11:49;;;;;;;8.02;7.82;;;21.40;99.90;;;;;;5058335;28;20226;-77
2023/06/21 06:14:17;;;;;;;8.50;8.30;;;21.60;99.90;;;;;;5059011;28;20262;-78
2023/06/21 06:16:45;;;;;;;8.48;8.27;;;21.70;99.90;;;;;;5057598;28;20284;-77
2023/06/21 06:19:13;;;;;;;8.05;7.85;;;21.80;99.90;;;;;;5057360;28;20231;-77
2023/06/21 06:21:41;;;;;;;8.50;8.30;;;21.90;99.90;;;;;;5052984;28;20244;-78
2023/06/21 06:24:10;;;;;;;8.13;7.93;;;22.00;99.90;;;;;;5077364;28;20321;-77
2023/06/21 06:26:37;;;;;;;7.85;7.65;;;22.10;99.90;;;;;;5066502;28;20326;-78
2023/06/21 06:29:05;;;;;;;7.90;7.70;;;22.20;99.90;;;;;;5076595;28;20228;-74
2023/06/21 06:31:36;;;;;;;8.50;8.30;;;22.20;99.90;;;;;;5077637;28;20230;-76
2023/06/21 06:34:04;;;;;;;8.90;8.70;;;22.20;99.90;;;;;;5075209;28;20290;-75
2023/06/21 06:36:32;;;;;;;8.82;8.63;;;22.30;99.90;;;;;;5075678;28;20238;-76
2023/06/21 06:38:59;;;;;;;8.60;8.40;;;22.40;99.90;;;;;;5075494;28;20259;-76
2023/06/21 06:41:28;;;;;;;8.13;7.93;;;22.40;99.90;;;;;;5069937;28;20232;-75
2023/06/21 06:43:56;;;;;;;8.10;7.90;;;22.50;99.90;;;;;;5069513;28;20233;-75
2023/06/21 06:46:23;;;;;;;8.68;8.48;;;22.50;99.90;;;;;;5077801;28;20337;-75
2023/06/21 06:48:51;;;;;;;10.07;9.77;;;22.60;99.90;;;;;;5079313;28;20268;-75
2023/06/21 06:51:18;;;;;;;10.10;9.80;;;22.60;99.90;;;;;;5068830;28;20253;-76
2023/06/21 06:53:47;;;;;;;10.38;10.07;;;22.70;99.90;;;;;;5060119;28;20230;-75
2023/06/21 06:56:15;;;;;;;10.40;10.10;;;22.70;99.90;;;;;;5070786;28;20222;-75
2023/06/21 06:58:44;;;;;;;10.40;10.10;;;22.80;99.90;;;;;;5068796;28;20234;-77
2023/06/21 07:01:13;;;;;;;10.30;10.00;;;22.90;99.90;;;;;;5058690;28;20226;-76
2023/06/21 07:03:41;;;;;;;10.82;10.52;;;23.00;99.90;;;;;;5053898;28;20285;-76
2023/06/21 07:06:08;;;;;;;10.43;10.13;;;23.10;99.90;;;;;;5055500;28;20329;-76
2023/06/21 07:08:36;;;;;;;10.52;10.23;;;23.10;99.90;;;;;;5055548;28;20333;-76
2023/06/21 07:11:03;;;;;;;10.73;10.43;;;23.20;99.90;;;;;;5055142;28;20290;-75
2023/06/21 07:13:30;;;;;;;11.00;10.70;;;23.20;99.90;;;;;;5056290;28;20239;-76
2023/06/21 07:16:00;;;;;;;10.98;10.68;;;23.20;99.90;;;;;;5055791;28;20227;-76
2023/06/21 07:18:28;;;;;;;10.40;10.10;;;23.30;99.90;;;;;;5019466;28;20234;-76
2023/06/21 07:20:55;;;;;;;10.55;10.25;;;23.20;99.90;;;;;;5018955;28;20335;-76
2023/06/21 07:23:23;;;;;;;10.43;10.13;;;23.30;99.90;;;;;;5018974;28;20244;-76
2023/06/21 07:25:50;;;;;;;10.55;10.25;;;23.20;99.90;;;;;;5017990;28;20236;-75
2023/06/21 07:28:18;;;;;;;10.50;10.20;;;23.10;99.90;;;;;;5013631;28;21053;-76
2023/06/21 07:30:45;;;;;;;10.60;10.30;;;23.20;99.90;;;;;;5040896;28;20224;-76
2023/06/21 07:33:14;;;;;;;10.57;10.27;;;23.40;99.90;;;;;;5022647;28;20530;-76
2023/06/21 07:35:42;;;;;;;10.82;10.52;;;23.40;99.90;;;;;;5020959;28;20263;-76
2023/06/21 07:38:09;;;;;;;11.05;10.75;;;23.50;99.90;;;;;;5019991;28;20227;-77
2023/06/21 07:40:37;;;;;;;11.40;11.00;;;23.50;99.90;;;;;;5019762;28;20236;-76
2023/06/21 07:43:06;;;;;;;11.18;10.88;;;23.50;99.90;;;;;;5017745;28;20228;-76
2023/06/21 07:45:33;;;;;;;11.00;10.70;;;23.50;99.90;;;;;;5036996;28;20235;-76
2023/06/21 07:48:00;;;;;;;10.90;10.60;;;23.50;99.90;;;;;;5039325;28;20243;-76
2023/06/21 07:50:30;;;;;;;10.85;10.55;;;23.40;99.90;;;;;;5039283;28;20232;-76
2023/06/21 07:52:58;;;;;;;10.93;10.63;;;23.50;99.90;;;;;;5011766;28;20237;-76
2023/06/21 07:55:25;;;;;;;10.70;10.40;;;23.60;99.90;;;;;;5014083;28;20315;-76
2023/06/21 07:57:52;;;;;;;11.00;10.70;;;23.80;99.90;;;;;;5030391;28;20236;-76
2023/06/21 08:00:21;;;;;;;11.43;11.02;;;23.90;99.90;;;;;;5022687;28;20227;-76
2023/06/21 08:02:49;;;;;;;11.02;10.73;;;24.10;99.90;;;;;;5016211;28;20232;-75
2023/06/21 08:05:17;;;;;;;11.35;11.05;;;24.30;99.90;;;;;;5018877;28;20235;-76
2023/06/21 08:07:46;;;;;;;11.60;11.20;;;24.50;99.90;;;;;;5018789;28;20327;-74
2023/06/21 08:10:13;;;;;;;11.50;11.10;;;24.80;99.90;;;;;;5018483;28;20232;-75
2023/06/21 08:12:41;;;;;;;10.85;10.55;;;25.00;99.90;;;;;;5018542;28;20637;-74
2023/06/21 08:15:10;;;;;;;11.10;10.80;;;25.10;99.90;;;;;;5019169;28;20236;-76
2023/06/21 08:17:37;;;;;;;10.30;10.00;;;25.20;99.90;;;;;;5018702;28;20283;-76
2023/06/21 08:20:06;;;;;;;10.30;10.00;;;25.30;99.90;;;;;;5017369;28;20380;-75
2023/06/21 08:22:34;;;;;;;10.20;9.90;;;25.50;99.90;;;;;;5017830;28;20236;-74
2023/06/21 08:25:02;;;;;;;10.80;10.50;;;25.60;99.90;;;;;;5018297;28;20323;-75
2023/06/21 08:27:30;;;;;;;10.80;10.50;;;25.70;99.90;;;;;;5027698;28;20264;-73
2023/06/21 08:29:57;;;;;;;10.57;10.27;;;25.90;99.90;;;;;;5020012;28;20275;-74
2023/06/21 08:32:25;;;;;;;11.00;10.70;;;26.10;99.90;;;;;;5017792;28;20232;-75
2023/06/21 08:34:53;;;;;;;11.60;11.20;;;26.30;99.90;;;;;;5017928;28;20261;-74
2023/06/21 08:37:25;;;;;;;11.65;11.25;;;26.50;99.90;;;;;;5018127;28;20228;-75
2023/06/21 08:39:52;;;;;;;11.40;11.10;;;26.60;99.90;;;;;;5018085;28;20236;-74
2023/06/21 08:42:23;;;;;;;11.60;11.20;;;26.80;99.90;;;;;;5017619;28;20239;-75
2023/06/21 08:44:51;;;;;;;11.75;11.35;;;27.00;99.90;;;;;;5018399;28;20220;-75
2023/06/21 08:47:21;;;;;;;11.60;11.20;;;26.90;99.90;;;;;;5018055;28;20319;-75
2023/06/21 08:49:49;;;;;;;11.60;11.20;;;27.10;99.90;;;;;;5017855;28;20290;-75
2023/06/21 08:52:20;;;;;;;11.70;11.30;;;27.40;99.90;;;;;;5017305;28;20236;-74
2023/06/21 08:54:58;;;;;;;11.40;11.10;;;27.40;99.90;;;;;;5028053;28;20238;-75
2023/06/21 08:57:31;;;;;;;11.68;11.27;;;27.30;99.90;;;;;;5038734;28;20230;-76
2023/06/21 09:00:03;;;;;;;11.40;11.10;;;27.30;99.90;;;;;;5040453;28;20351;-78
2023/06/21 09:02:49;;;;;;;11.20;10.90;;;27.20;99.90;;;;;;5029317;28;20259;-77
2023/06/21 09:05:26;;;;;;;11.40;11.10;;;27.10;99.90;;;;;;5026985;28;20236;-76
2023/06/21 09:07:54;;;;;;;11.30;11.00;;;27.00;99.90;;;;;;5023272;28;20238;-77
2023/06/21 09:10:23;;;;;;;11.40;11.10;;;27.00;99.90;;;;;;5021322;28;20248;-76
2023/06/21 09:12:54;;;;;;;11.13;10.82;;;27.10;99.90;;;;;;5019794;28;20242;-77
2023/06/21 09:15:23;;;;;;;11.05;10.75;;;27.20;99.90;;;;;;5021428;28;20277;-77
2023/06/21 09:17:51;;;;;;;11.23;10.93;;;27.10;99.90;;;;;;5023234;28;20266;-79
2023/06/21 09:20:19;;;;;;;11.30;11.00;;;26.80;99.90;;;;;;5024113;28;20228;-78
2023/06/21 09:22:47;;;;;;;11.45;11.15;;;26.60;99.90;;;;;;5019423;28;20235;-76
2023/06/21 09:25:15;;;;;;;11.80;11.40;;;26.60;99.90;;;;;;5019969;28;20236;-77
2023/06/21 09:27:42;;;;;;;11.52;11.23;;;26.70;99.90;;;;;;5020448;28;20236;-77
2023/06/21 09:30:12;;;;;;;11.48;11.18;;;26.80;99.90;;;;;;5026230;28;20254;-77
2023/06/21 09:32:39;;;;;;;11.40;11.10;;;26.80;99.90;;;;;;5030464;28;20263;-77
2023/06/21 09:35:09;;;;;;;11.25;10.95;;;27.00;99.90;;;;;;5038743;28;20238;-77
2023/06/21 09:37:39;;;;;;;11.52;11.23;;;27.10;99.90;;;;;;5029612;28;20323;-78
2023/06/21 09:40:08;;;;;;;11.27;10.98;;;27.00;99.90;;;;;;5035662;28;21122;-78
2023/06/21 09:42:38;;;;;;;11.30;11.00;;;27.10;99.90;;;;;;5020419;28;20232;-78
2023/06/21 09:45:12;;;;;;;10.82;10.52;;;27.30;99.90;;;;;;5020418;28;20236;-78
2023/06/21 09:47:42;;;;;;;11.20;10.90;;;27.80;99.90;;;;;;5019117;28;20240;-78
2023/06/21 09:50:12;;;;;;;11.10;10.80;;;28.00;99.90;;;;;;5018167;28;20232;-79
2023/06/21 09:52:43;;;;;;;11.45;11.15;;;28.20;99.90;;;;;;5017483;28;20246;-78
2023/06/21 09:55:14;;;;;;;11.65;11.25;;;28.30;99.90;;;;;;5019733;28;20228;-77
2023/06/21 09:57:43;;;;;;;11.48;11.18;;;28.10;99.90;;;;;;5022216;28;20255;-77
2023/06/21 10:00:14;;;;;;;11.57;11.27;;;28.20;99.90;;;;;;5020567;28;20240;-78
2023/06/21 10:02:42;;;;;;;11.80;11.40;;;28.20;99.90;;;;;;5018934;28;20236;-76
2023/06/21 10:05:17;;;;;;;11.82;11.43;;;28.40;99.90;;;;;;5018563;28;20232;-77
2023/06/21 10:07:45;;;;;;;11.52;11.23;;;28.80;99.90;;;;;;5017503;28;20266;-76
2023/06/21 10:10:14;;;;;;;11.63;11.23;;;29.10;99.90;;;;;;5018018;28;20248;-78
2023/06/21 10:12:51;;;;;;;10.93;10.63;;;29.30;99.90;;;;;;5018200;28;20248;-77
2023/06/21 10:15:21;;;;;;;11.30;11.00;;;29.10;99.90;;;;;;5018394;28;20231;-78
2023/06/21 10:17:48;;;;;;;11.45;11.15;;;29.10;99.90;;;;;;5017893;28;20282;-78
2023/06/21 10:20:17;;;;;;;11.30;11.00;;;29.00;99.90;;;;;;5019527;28;20240;-79
2023/06/21 10:22:51;;;;;;;11.18;10.88;;;29.10;99.90;;;;;;5017640;28;20247;-77
2023/06/21 10:25:21;;;;;;;10.95;10.65;;;28.90;99.90;;;;;;5018623;28;20243;-77
2023/06/21 10:27:52;;;;;;;10.90;10.60;;;28.70;99.90;;;;;;5018341;28;20240;-78
2023/06/21 10:30:24;;;;;;;10.70;10.40;;;28.80;99.90;;;;;;5018302;28;20597;-77
2023/06/21 10:33:08;;;;;;;10.45;10.15;;;28.80;99.90;;;;;;5024985;28;20331;-78
2023/06/21 10:35:37;;;;;;;10.60;10.30;;;28.90;99.90;;;;;;5023269;28;20294;-78
2023/06/21 10:38:12;;;;;;;10.60;10.30;;;28.80;99.90;;;;;;5022494;28;20299;-77
2023/06/21 10:40:41;;;;;;;10.60;10.30;;;28.80;99.90;;;;;;5020616;28;20327;-75
2023/06/21 10:43:10;;;;;;;10.55;10.25;;;28.60;99.90;;;;;;5020499;28;20228;-77
2023/06/21 10:45:39;;;;;;;10.55;10.25;;;28.40;99.90;;;;;;5020739;28;20228;-78
2023/06/21 10:48:09;;;;;;;10.40;10.10;;;28.10;99.90;;;;;;5019981;28;20260;-78
2023/06/21 10:50:37;;;;;;;10.75;10.45;;;27.80;99.90;;;;;;5018261;28;20266;-77
2023/06/21 10:53:07;;;;;;;10.80;10.50;;;27.50;99.90;;;;;;5018437;28;20234;-78
2023/06/21 10:55:34;;;;;;;10.57;10.27;;;27.20;99.90;;;;;;5019121;28;20232;-79
2023/06/21 10:58:03;;;;;;;10.55;10.25;;;26.90;99.90;;;;;;5020423;28;20228;-77
2023/06/21 11:00:31;;;;;;;10.60;10.30;;;26.60;99.90;;;;;;5018469;28;21060;-78
2023/06/21 11:03:00;;;;;;;10.57;10.27;;;26.20;99.90;;;;;;5032049;28;20232;-77
2023/06/21 11:05:28;;;;;;;10.50;10.20;;;26.00;99.90;;;;;;5019872;28;20239;-76
2023/06/21 11:07:58;;;;;;;10.50;10.20;;;25.80;99.90;;;;;;5017774;28;20323;-77
2023/06/21 11:10:32;;;;;;;10.45;10.15;;;25.70;99.90;;;;;;5017216;28;20244;-78
2023/06/21 11:13:00;;;;;;;10.20;9.90;;;25.70;99.90;;;;;;5017520;28;20232;-77
2023/06/21 11:15:28;;;;;;;9.90;9.60;;;25.70;99.90;;;;;;5017969;28;20259;-76
2023/06/21 11:17:57;;;;;;;9.82;9.52;;;25.60;99.90;;;;;;5017120;28;20228;-77
2023/06/21 11:20:27;;;;;;;9.40;9.10;;;25.70;99.90;;;;;;5017650;28;20772;-77
2023/06/21 17:33:37;;;;;;;10.20;9.90;;;33.00;99.90;;;;;;5001151;28;20224;-87
2023/06/21 17:36:51;;;;;;;10.02;9.73;;;33.20;99.90;;;;;;5008350;28;20236;-86
2023/06/21 17:39:20;;;;;;;10.38;10.07;;;33.30;99.90;;;;;;4997530;28;20244;-88
2023/06/21 17:41:50;;;;;;;10.70;10.40;;;33.30;99.90;;;;;;5003324;28;20295;-87
2023/06/21 17:44:19;;;;;;;10.25;9.95;;;33.40;99.90;;;;;;5002059;28;20224;-87
2023/06/21 17:46:49;;;;;;;10.50;10.20;;;33.30;99.90;;;;;;5020297;28;20243;-87
2023/06/21 17:49:26;;;;;;;10.27;9.98;;;33.30;99.90;;;;;;5020317;28;20239;-86
2023/06/21 17:51:56;;;;;;;9.95;9.65;;;33.20;99.90;;;;;;5020401;28;20247;-85
2023/06/21 17:54:25;;;;;;;9.88;9.57;;;33.10;99.90;;;;;;5020691;28;20285;-87
2023/06/21 17:56:56;;;;;;;9.85;9.55;;;33.10;99.90;;;;;;5020530;28;20256;-87
2023/06/21 17:59:27;;;;;;;10.05;9.75;;;33.00;99.90;;;;;;5020227;28;20236;-85
2023/06/21 18:01:55;;;;;;;9.98;9.68;;;32.70;99.90;;;;;;5020557;28;20292;-85
2023/06/21 18:04:26;;;;;;;9.95;9.65;;;32.50;99.90;;;;;;5020566;28;20321;-86
2023/06/21 18:06:53;;;;;;;9.80;9.50;;;32.30;99.90;;;;;;5020285;28;20254;-85
2023/06/21 18:09:22;;;;;;;9.60;9.30;;;32.30;99.90;;;;;;5020609;28;20236;-85
2023/06/21 18:11:51;;;;;;;9.70;9.40;;;32.20;99.90;;;;;;5019761;28;20271;-86
2023/06/21 18:14:22;;;;;;;9.50;9.20;;;32.10;99.90;;;;;;5020366;28;20236;-85
2023/06/21 18:17:04;;;;;;;9.52;9.23;;;32.00;99.90;;;;;;5021506;28;20263;-86
2023/06/21 18:19:33;;;;;;;9.50;9.20;;;31.90;99.90;;;;;;5001964;28;20289;-84
2023/06/21 18:22:03;;;;;;;9.40;9.10;;;31.80;99.90;;;;;;5002408;28;20245;-86
2023/06/21 18:24:30;;;;;;;9.32;9.02;;;31.70;99.90;;;;;;5001265;28;20274;-85
2023/06/21 18:26:59;;;;;;;9.32;9.02;;;31.60;99.90;;;;;;5001295;28;20243;-84
2023/06/21 18:29:28;;;;;;;9.35;9.05;;;31.50;99.90;;;;;;5000800;28;20278;-86
2023/06/21 18:31:58;;;;;;;9.50;9.20;;;31.20;99.90;;;;;;5003648;28;20245;-84
2023/06/21 18:34:27;;;;;;;9.30;9.00;;;31.00;99.90;;;;;;5019152;28;20212;-81
2023/06/21 18:37:08;;;;;;;9.15;8.95;;;30.80;99.90;;;;;;5020222;28;20228;-83
2023/06/21 18:39:36;;;;;;;9.10;8.90;;;30.60;99.90;;;;;;5018897;28;20268;-85
2023/06/21 18:42:06;;;;;;;9.30;9.00;;;30.30;99.90;;;;;;5016920;28;20225;-81
2023/06/21 18:44:34;;;;;;;9.40;9.10;;;30.10;99.90;;;;;;5011935;28;20224;-83
2023/06/21 18:47:03;;;;;;;9.30;9.00;;;29.80;99.90;;;;;;5029922;28;20256;-80
2023/06/21 18:49:32;;;;;;;8.93;8.73;;;29.60;99.90;;;;;;5023933;28;20239;-83
2023/06/21 18:52:12;;;;;;;9.70;9.40;;;29.30;99.90;;;;;;5015739;28;20225;-84
2023/06/21 18:54:40;;;;;;;9.60;9.30;;;29.00;99.90;;;;;;5014065;28;20220;-85
2023/06/21 18:57:21;;;;;;;9.40;9.10;;;28.80;99.90;;;;;;5021430;28;20279;-84
2023/06/21 18:59:59;;;;;;;9.77;9.48;;;28.50;99.90;;;;;;5026494;28;20235;-85
2023/06/21 19:02:27;;;;;;;9.80;9.50;;;28.30;99.90;;;;;;5005389;28;20236;-85
2023/06/21 19:04:55;;;;;;;9.90;9.60;;;28.10;99.90;;;;;;5008584;28;20224;-86
2023/06/21 19:07:34;;;;;;;10.10;9.80;;;27.90;99.90;;;;;;5008014;28;20234;-83
2023/06/21 19:10:14;;;;;;;;;;;;;;;;;;;;;
2023/06/21 19:12:46;;;;;;;9.80;9.50;;;27.50;99.90;;;;;;5022373;28;20239;-84
2023/06/21 19:15:14;;;;;;;10.13;9.82;;;27.40;99.90;;;;;;5014406;28;20213;-85
2023/06/21 19:17:50;;;;;;;10.13;9.82;;;27.20;99.90;;;;;;5016665;28;20220;-85
2023/06/21 19:20:18;;;;;;;9.95;9.65;;;27.00;99.90;;;;;;5000479;28;20233;-83